Ventura — ZCDT2 — position and weather

sailwx.info

Track history (hours):
 
Tides and Currents Weather Stations Pressure Air Temp Water Temp Dewpoint Dewpoint Depression Visibility Wind Speed Wind Dir Waves Ship Positions

Ventura

Last reported at 2018-Sep-24 16:00 UTC. Time now 2018-Sep-24 21:18 UTC.
Position N 37°42' E 017°48'.

Length 289 m.

Type: Passenger vessel. MMSI: 310562000.

Wind from 230 at 16 knots

Barometer 1013.7 mb
Air temperature 27.0 ° C
Visibility: greater than 10.8 NM
Dewpoint 21.8 ° C
Water temperature 26.8 ° C

Date/timePositionNaut miles runAvg speedWind from/ knotsBaromVisibWave heightAir tempDewpointWater temp
2018-Sep-24 16:00N 37°42' E 017°48'8215.5 230 / 161013.710.8 27.021.826.8
2018-Sep-24 10:40N 37°46' E 016°04'315.3
2018-Sep-24 10:30N 37°46' E 016°01'715.4
2018-Sep-24 10:02N 37°47' E 015°52'015.5
2018-Sep-24 10:00N 37°47' E 015°51'1412.6
2018-Sep-24 08:55N 37°55' E 015°37'915.1
2018-Sep-24 08:20N 38°03' E 015°34'415.1
2018-Sep-24 08:02N 38°07' E 015°34'114.3
2018-Sep-24 07:58N 38°09' E 015°34'713.5
2018-Sep-24 07:27N 38°15' E 015°37'511.5
2018-Sep-24 07:03N 38°19' E 015°41'012.4
2018-Sep-24 07:00N 38°19' E 015°41'713.3
2018-Sep-24 06:30N 38°21' E 015°33'715.0
2018-Sep-24 06:03N 38°21' E 015°24'115.0
2018-Sep-24 06:00N 38°21' E 015°23'815.2
2018-Sep-24 05:30N 38°20' E 015°13'715.0
2018-Sep-24 05:03N 38°20' E 015°05'115.0
2018-Sep-24 05:00N 38°20' E 015°04'815.2
2018-Sep-24 04:30N 38°19' E 014°54'815.4
2018-Sep-24 03:59N 38°21' E 014°44'915.3
2018-Sep-24 03:25N 38°22' E 014°33'1815.1
2018-Sep-24 02:12N 38°24' E 014°10'315.5
2018-Sep-24 02:02N 38°24' E 014°06'115.7
2018-Sep-24 02:00N 38°24' E 014°06'815.8
2018-Sep-24 01:30N 38°24' E 013°56'715.7
2018-Sep-24 01:03N 38°25' E 013°47'115.7
2018-Sep-24 01:00N 38°25' E 013°46'815.6
2018-Sep-24 00:30N 38°26' E 013°36'715.6
2018-Sep-24 00:03N 38°27' E 013°27'115.8
2018-Sep-24 00:00N 38°27' E 013°26'815.9
2018-Sep-23 23:30N 38°27' E 013°16'715.8
2018-Sep-23 23:03N 38°27' E 013°07'115.9
2018-Sep-23 23:00N 38°27' E 013°06'816.1
2018-Sep-23 22:30N 38°27' E 012°56'715.9
2018-Sep-23 22:03N 38°27' E 012°47'115.9
2018-Sep-23 22:00N 38°27' E 012°45'2016.3
2018-Sep-23 20:48N 38°28' E 012°20'6316.6
2018-Sep-23 17:00N 38°24' E 011°00'3316.5 260 / 121018.910.8 25.018.825.9
2018-Sep-23 15:00N 38°24' E 010°18'16016.0 230 / 121019.410.8 27.520.725.5
2018-Sep-23 05:00N 38°36' E 006°54'9816.0 310 / 171020.710.8
2018-Sep-22 22:51N 38°52' E 004°49'616.3
2018-Sep-22 22:30N 38°52' E 004°42'716.4
2018-Sep-22 22:03N 38°53' E 004°33'116.5
2018-Sep-22 21:58N 38°54' E 004°31'816.5
2018-Sep-22 21:30N 38°55' E 004°21'716.2
2018-Sep-22 21:03N 38°56' E 004°12'116.3
2018-Sep-22 21:00N 38°56' E 004°11'816.0
2018-Sep-22 20:30N 38°57' E 004°01'715.9
2018-Sep-22 20:03N 38°58' E 003°52'116.0
2018-Sep-22 20:00N 38°58' E 003°51'816.0
2018-Sep-22 19:30N 38°59' E 003°41'716.1
2018-Sep-22 19:03N 38°60' E 003°31'116.2
2018-Sep-22 19:00N 38°60' E 003°30'916.3
2018-Sep-22 18:28N 39°01' E 003°19'716.2
2018-Sep-22 18:03N 39°02' E 003°11'116.2
2018-Sep-22 18:00N 39°02' E 003°09'816.3
2018-Sep-22 17:30N 39°03' E 002°59'815.2
2018-Sep-22 17:01N 39°06' E 002°50'015.9
2018-Sep-22 17:00N 39°07' E 002°50'816.3
2018-Sep-22 16:30N 39°14' E 002°45'716.5
2018-Sep-22 16:03N 39°20' E 002°41'116.3
2018-Sep-22 16:00N 39°21' E 002°40'814.9
2018-Sep-22 15:30N 39°28' E 002°39'511.2
2018-Sep-22 15:03N 39°33' E 002°39'0 5.6
2018-Sep-22 15:00N 39°33' E 002°38'0 0.5
2018-Sep-22 14:29N 39°33' E 002°38'0 0.0
2018-Sep-22 13:59N 39°33' E 002°38'0 0.0
2018-Sep-22 13:29N 39°33' E 002°38'0 0.0
2018-Sep-22 13:02N 39°33' E 002°38'0 0.0
2018-Sep-22 12:56N 39°33' E 002°38'0 0.0
2018-Sep-22 12:29N 39°33' E 002°38'0 0.0
2018-Sep-22 12:02N 39°33' E 002°38'0 0.1
2018-Sep-22 11:59N 39°33' E 002°38'0 0.0
2018-Sep-22 11:29N 39°33' E 002°38'0 0.0
2018-Sep-22 11:02N 39°33' E 002°38'0 0.0
2018-Sep-22 10:59N 39°33' E 002°38'0 0.0
2018-Sep-22 10:29N 39°33' E 002°38'0 0.0
2018-Sep-22 10:02N 39°33' E 002°38'0 0.0
2018-Sep-22 09:59N 39°33' E 002°38'0 0.0
2018-Sep-22 09:29N 39°33' E 002°38'0 0.0
2018-Sep-22 09:02N 39°33' E 002°38'0 0.0
2018-Sep-22 08:59N 39°33' E 002°38'0 0.0
2018-Sep-22 08:29N 39°33' E 002°38'0 0.0
2018-Sep-22 08:02N 39°33' E 002°38'0 0.0
2018-Sep-22 07:59N 39°33' E 002°38'0 0.0
2018-Sep-22 07:29N 39°33' E 002°38'0 0.0
2018-Sep-22 07:02N 39°33' E 002°38'0 0.0
2018-Sep-22 06:59N 39°33' E 002°38'0 0.0
2018-Sep-22 06:29N 39°33' E 002°38'0 0.2
2018-Sep-22 06:04N 39°33' E 002°38'0 1.0
2018-Sep-22 06:00N 39°33' E 002°38'3 5.0
2018-Sep-22 05:30N 39°31' E 002°40'612.7
2018-Sep-22 05:03N 39°26' E 002°36'114.4
2018-Sep-22 05:00N 39°26' E 002°35'917.3
2018-Sep-22 04:30N 39°19' E 002°28'817.3
2018-Sep-22 04:03N 39°13' E 002°22'117.2
2018-Sep-22 04:00N 39°12' E 002°21'917.4
2018-Sep-22 03:29N 39°05' E 002°14'1017.7
2018-Sep-22 02:55N 38°57' E 002°06'818.2
2018-Sep-22 02:28N 38°51' E 001°59'819.0
2018-Sep-22 02:02N 38°45' E 001°53'120.6
2018-Sep-22 02:00N 38°44' E 001°52'1020.6
2018-Sep-22 01:30N 38°36' E 001°44'920.2
2018-Sep-22 01:03N 38°30' E 001°35'120.5
2018-Sep-22 01:00N 38°29' E 001°34'1020.3
2018-Sep-22 00:30N 38°24' E 001°24'920.4
2018-Sep-22 00:03N 38°18' E 001°14'120.8
2018-Sep-21 23:59N 38°17' E 001°13'1320.5
2018-Sep-21 23:20N 38°10' E 000°59'620.3
2018-Sep-21 23:02N 38°06' E 000°53'120.3
2018-Sep-21 22:58N 38°05' E 000°52'1020.1
2018-Sep-21 22:27N 37°59' E 000°41'1920.1
2018-Sep-21 21:31N 37°48' E 000°21'020.3
2018-Sep-21 21:30N 37°48' E 000°21'920.3
2018-Sep-21 21:03N 37°43' E 000°12'120.2
2018-Sep-21 21:00N 37°42' E 000°11'1020.3
2018-Sep-21 20:30N 37°36' E 000°00'919.9
2018-Sep-21 20:03N 37°31' W 000°09'119.9
2018-Sep-21 20:00N 37°30' W 000°10'1019.9
2018-Sep-21 19:30N 37°24' W 000°20'920.1
2018-Sep-21 19:03N 37°19' W 000°29'120.1
2018-Sep-21 19:00N 37°18' W 000°30'1020.0
2018-Sep-21 18:30N 37°13' W 000°40'920.0
2018-Sep-21 18:03N 37°07' W 000°50'220.2
2018-Sep-21 17:58N 37°06' W 000°51'1020.2
2018-Sep-21 17:30N 37°01' W 001°01'920.1
2018-Sep-21 17:03N 36°56' W 001°10'120.1
2018-Sep-21 16:59N 36°55' W 001°11'1020.0
2018-Sep-21 16:29N 36°49' W 001°21'920.2
2018-Sep-21 16:03N 36°44' W 001°30'22333.9
2018-Sep-21 16:00N 36°54' W 001°06'24984.8 220 / 61017.610.8 23.518.125.5
2018-Sep-21 15:58N 36°43' W 001°32'18220.0
2018-Sep-21 06:51N 35°59' W 005°12'720.2
2018-Sep-21 06:30N 35°58' W 005°21'1620.6
2018-Sep-21 05:44N 35°54' W 005°40'519.9
2018-Sep-21 05:30N 35°54' W 005°46'819.0
2018-Sep-21 05:03N 35°55' W 005°56'119.1
2018-Sep-21 04:59N 35°55' W 005°58'1020.0
2018-Sep-21 04:30N 35°55' W 006°10'6919.7
2018-Sep-21 01:00N 36°12' W 007°33'1019.8
2018-Sep-21 00:30N 36°14' W 007°44'2019.8
2018-Sep-20 23:29N 36°19' W 008°09'919.8
2018-Sep-20 23:00N 36°22' W 008°20'1019.6
2018-Sep-20 22:30N 36°24' W 008°32'919.6
2018-Sep-20 22:02N 36°26' W 008°43'119.9
2018-Sep-20 22:00N 36°26' W 008°44'1019.8
2018-Sep-20 21:30N 36°28' W 008°56'919.7
2018-Sep-20 21:03N 36°31' W 009°06'419.8
2018-Sep-20 20:52N 36°32' W 009°10'919.3
2018-Sep-20 20:25N 36°37' W 009°20'719.9
2018-Sep-20 20:03N 36°42' W 009°26'120.0
2018-Sep-20 20:00N 36°43' W 009°27'1019.0
2018-Sep-20 19:30N 36°51' W 009°33'920.0
2018-Sep-20 19:03N 36°60' W 009°35'120.1
2018-Sep-20 19:00N 37°01' W 009°35'1020.0
2018-Sep-20 18:30N 37°11' W 009°38'920.3
2018-Sep-20 18:03N 37°19' W 009°40'120.4
2018-Sep-20 18:00N 37°20' W 009°41'1020.4
2018-Sep-20 17:30N 37°30' W 009°44'920.1
2018-Sep-20 17:03N 37°39' W 009°48'120.1
2018-Sep-20 17:00N 37°40' W 009°48'6570.4
2018-Sep-20 17:00N 37°36' W 009°42'1531.7 350 / 201019.110.8 25.115.419.2
2018-Sep-20 16:30N 37°50' W 009°51'920.2
2018-Sep-20 16:03N 37°58' W 009°54'120.4
2018-Sep-20 16:00N 37°59' W 009°54'1020.4
2018-Sep-20 15:30N 38°09' W 009°57'920.2
2018-Sep-20 15:03N 38°18' W 009°59'120.4
2018-Sep-20 15:00N 38°19' W 009°60'1920.3
2018-Sep-20 14:03N 38°38' W 010°04'120.2
2018-Sep-20 14:00N 38°39' W 010°04'1019.8
2018-Sep-20 13:30N 38°49' W 010°06'920.2
2018-Sep-20 13:03N 38°58' W 010°07'119.8
2018-Sep-20 13:00N 38°59' W 010°07'1019.6
2018-Sep-20 12:30N 39°09' W 010°07'920.0
2018-Sep-20 12:03N 39°18' W 010°07'120.0
2018-Sep-20 12:00N 39°19' W 010°07'918.8
2018-Sep-20 11:30N 39°28' W 010°06'818.2
2018-Sep-20 11:03N 39°36' W 010°06'118.3
2018-Sep-20 11:00N 39°37' W 010°06'918.4
2018-Sep-20 10:30N 39°46' W 010°06'818.3
2018-Sep-20 10:03N 39°55' W 010°07'118.2
2018-Sep-20 10:00N 39°56' W 010°07'918.2
2018-Sep-20 09:30N 40°05' W 010°07'817.6
2018-Sep-20 09:03N 40°13' W 010°07'119.5
2018-Sep-20 09:00N 40°14' W 010°07'1019.5
2018-Sep-20 08:30N 40°23' W 010°05'919.8
2018-Sep-20 08:03N 40°32' W 010°04'119.6
2018-Sep-20 08:00N 40°33' W 010°04'1020.3
2018-Sep-20 07:30N 40°44' W 010°05'1120.8
2018-Sep-20 06:58N 40°55' W 010°06'1021.7
2018-Sep-20 06:30N 41°05' W 010°05'1021.3
2018-Sep-20 06:01N 41°15' W 010°05'120.7
2018-Sep-20 05:59N 41°16' W 010°05'25719.8
2018-Sep-19 17:00N 45°18' W 008°06'17 8.7 220 / 231018.9 5.4 20.518.119.8
2018-Sep-19 15:00N 45°30' W 007°48'18523.2 220 / 251018.4 5.4 20.518.119.7
2018-Sep-19 07:00N 48°12' W 005°36'592.2 210 / 331013.810.8 18.516.917.5
2018-Sep-19 06:56N 48°17' W 005°36'818.8
2018-Sep-19 06:30N 48°24' W 005°31'818.9
2018-Sep-19 06:03N 48°32' W 005°24'119.0
2018-Sep-19 06:00N 48°32' W 005°23'918.7
2018-Sep-19 05:30N 48°39' W 005°14'817.7
2018-Sep-19 05:03N 48°44' W 005°04'117.5
2018-Sep-19 05:00N 48°45' W 005°03'918.1
2018-Sep-19 04:30N 48°50' W 004°52'919.4
2018-Sep-19 04:03N 48°56' W 004°41'119.2
2018-Sep-19 04:00N 48°56' W 004°40'6518.2
2018-Sep-19 00:26N 49°39' W 003°25'717.7
2018-Sep-19 00:04N 49°44' W 003°18'117.5
2018-Sep-19 00:00N 49°44' W 003°17'917.3
2018-Sep-18 23:30N 49°51' W 003°08'818.2
2018-Sep-18 23:03N 49°56' W 002°59'118.5
2018-Sep-18 23:00N 49°57' W 002°58'918.5
2018-Sep-18 22:30N 50°00' W 002°44'918.9
2018-Sep-18 22:03N 50°03' W 002°32'119.0
2018-Sep-18 22:00N 50°04' W 002°30'1019.1
2018-Sep-18 21:30N 50°08' W 002°17'919.3
2018-Sep-18 21:03N 50°12' W 002°05'119.4
2018-Sep-18 21:00N 50°12' W 002°03'1019.5
2018-Sep-18 20:30N 50°17' W 001°50'919.3
2018-Sep-18 20:03N 50°21' W 001°38'119.6
2018-Sep-18 20:01N 50°21' W 001°37'1019.6
2018-Sep-18 19:30N 50°25' W 001°22'919.4
2018-Sep-18 19:03N 50°29' W 001°10'118.8
2018-Sep-18 19:00N 50°30' W 001°09'917.5
2018-Sep-18 18:30N 50°36' W 000°59'714.9
2018-Sep-18 18:03N 50°43' W 000°59'0 7.8
2018-Sep-18 18:00N 50°43' W 000°59'714.9
2018-Sep-18 17:30N 50°46' W 001°10'612.2
2018-Sep-18 17:03N 50°48' W 001°18'111.2
2018-Sep-18 17:00N 50°48' W 001°18'611.3
2018-Sep-18 16:31N 50°53' W 001°23'2 5.1
2018-Sep-18 16:03N 50°54' W 001°26'0 0.0
2018-Sep-18 16:00N 50°54' W 001°26'0 0.0
2018-Sep-18 15:25N 50°54' W 001°26'0 0.0
2018-Sep-18 15:01N 50°54' W 001°26'0 0.0
2018-Sep-18 14:55N 50°54' W 001°26'0 0.0
2018-Sep-18 14:01N 50°54' W 001°26'0 0.0
2018-Sep-18 13:55N 50°54' W 001°26'0 0.0
2018-Sep-18 13:25N 50°54' W 001°26'0 0.0
2018-Sep-18 13:01N 50°54' W 001°26'0 0.0
2018-Sep-18 12:55N 50°54' W 001°26'0 0.0
2018-Sep-18 12:25N 50°54' W 001°26'0 0.0
2018-Sep-18 12:01N 50°54' W 001°26'0 0.0
2018-Sep-18 11:55N 50°54' W 001°26'0 0.0
2018-Sep-18 11:25N 50°54' W 001°26'0 0.0
2018-Sep-18 11:01N 50°54' W 001°26'0 0.0
2018-Sep-18 10:55N 50°54' W 001°26'0 0.0
2018-Sep-18 10:25N 50°54' W 001°26'0 0.0
2018-Sep-18 10:01N 50°54' W 001°26'0 0.0
2018-Sep-18 09:55N 50°54' W 001°26'0 0.0
2018-Sep-18 09:25N 50°54' W 001°26'0 0.0
2018-Sep-18 09:01N 50°54' W 001°26'0 0.1
2018-Sep-18 08:55N 50°54' W 001°26'0 0.0
2018-Sep-18 08:25N 50°54' W 001°26'0 0.0
2018-Sep-18 08:01N 50°54' W 001°26'0 0.1
2018-Sep-18 07:55N 50°54' W 001°26'0 0.0
2018-Sep-18 07:25N 50°54' W 001°26'0 0.0
2018-Sep-18 07:01N 50°54' W 001°26'0 0.0
2018-Sep-18 06:49N 50°54' W 001°26'0 0.0
2018-Sep-18 06:25N 50°54' W 001°26'0 0.0
2018-Sep-18 06:01N 50°54' W 001°26'0 0.0
2018-Sep-18 05:55N 50°54' W 001°26'0 0.0
2018-Sep-18 05:25N 50°54' W 001°26'0 0.0
2018-Sep-18 05:01N 50°54' W 001°26'0 0.1
2018-Sep-18 04:55N 50°54' W 001°26'0 0.0
2018-Sep-18 04:25N 50°54' W 001°26'0 0.0
2018-Sep-18 04:01N 50°54' W 001°26'0 0.0
2018-Sep-18 03:55N 50°54' W 001°26'0 0.0
2018-Sep-18 03:25N 50°54' W 001°26'0 0.0
2018-Sep-18 03:01N 50°54' W 001°26'0 0.0
2018-Sep-18 02:55N 50°54' W 001°26'0 0.0
2018-Sep-18 02:25N 50°54' W 001°26'0 0.0
2018-Sep-18 02:01N 50°54' W 001°26'0 0.0
2018-Sep-18 01:55N 50°54' W 001°26'0 0.5
2018-Sep-18 01:30N 50°54' W 001°26'1 2.9
2018-Sep-18 01:03N 50°53' W 001°24'0 6.9
2018-Sep-18 01:00N 50°53' W 001°24'4 8.3
2018-Sep-18 00:30N 50°50' W 001°19'4 8.4
2018-Sep-18 00:03N 50°47' W 001°19'111.1
2018-Sep-18 00:00N 50°46' W 001°18'713.8
2018-Sep-17 23:31N 50°45' W 001°07'614.2
2018-Sep-17 23:03N 50°42' W 000°58'111.7
2018-Sep-17 23:00N 50°42' W 000°58'611.7
2018-Sep-17 22:30N 50°37' W 000°53'817.4
2018-Sep-17 22:03N 50°29' W 000°49'117.4
2018-Sep-17 22:00N 50°29' W 000°49'917.5
2018-Sep-17 21:30N 50°20' W 000°45'817.7
2018-Sep-17 21:03N 50°13' W 000°41'118.3
2018-Sep-17 21:00N 50°12' W 000°40'918.5
2018-Sep-17 20:30N 50°03' W 000°35'818.7
2018-Sep-17 20:03N 49°55' W 000°31'118.7
2018-Sep-17 20:00N 49°54' W 000°31'918.7
2018-Sep-17 19:30N 49°46' W 000°25'818.3
2018-Sep-17 19:03N 49°38' W 000°20'117.6
2018-Sep-17 19:00N 49°37' W 000°20'815.7
2018-Sep-17 18:30N 49°32' W 000°10'714.7
2018-Sep-17 18:03N 49°30' W 000°01'116.8
2018-Sep-17 18:00N 49°30' E 000°01'4 7.3
2018-Sep-17 17:28N 49°29' E 000°06'0 0.0
2018-Sep-17 17:01N 49°29' E 000°06'0 0.0
2018-Sep-17 16:58N 49°29' E 000°06'0 0.0
2018-Sep-17 16:28N 49°29' E 000°06'0 0.0
2018-Sep-17 16:01N 49°29' E 000°06'0 0.0
2018-Sep-17 15:58N 49°29' E 000°06'0 0.0
2018-Sep-17 15:28N 49°29' E 000°06'0 0.0
2018-Sep-17 14:58N 49°29' E 000°06'0 0.0
2018-Sep-17 14:28N 49°29' E 000°06'0 0.0
2018-Sep-17 13:58N 49°29' E 000°06'0 0.0
2018-Sep-17 13:28N 49°29' E 000°06'0 0.0
2018-Sep-17 13:01N 49°29' E 000°06'0 0.0
2018-Sep-17 12:58N 49°29' E 000°06'0 0.0
2018-Sep-17 12:28N 49°29' E 000°06'0 0.0
2018-Sep-17 12:01N 49°29' E 000°06'0 0.0
2018-Sep-17 11:58N 49°29' E 000°06'0 0.0
2018-Sep-17 11:28N 49°29' E 000°06'0 0.0
2018-Sep-17 11:01N 49°29' E 000°06'0 0.0
2018-Sep-17 10:58N 49°29' E 000°06'0 0.0
2018-Sep-17 10:28N 49°29' E 000°06'0 0.0
2018-Sep-17 10:01N 49°29' E 000°06'0 0.0
2018-Sep-17 09:58N 49°29' E 000°06'0 0.0
2018-Sep-17 09:28N 49°29' E 000°06'0 0.0
2018-Sep-17 09:01N 49°29' E 000°06'0 0.0
2018-Sep-17 08:58N 49°29' E 000°06'0 0.0
2018-Sep-17 08:28N 49°29' E 000°06'0 0.0
2018-Sep-17 08:01N 49°29' E 000°06'0 0.0
2018-Sep-17 07:58N 49°29' E 000°06'0 0.0
2018-Sep-17 07:28N 49°29' E 000°06'0 0.0
2018-Sep-17 07:01N 49°29' E 000°06'0 0.0
2018-Sep-17 06:58N 49°29' E 000°06'0 0.0
2018-Sep-17 06:28N 49°29' E 000°06'0 0.0
2018-Sep-17 06:01N 49°29' E 000°06'0 0.0
2018-Sep-17 05:58N 49°29' E 000°06'0 0.0
2018-Sep-17 05:28N 49°29' E 000°06'0 0.0
2018-Sep-17 05:01N 49°29' E 000°06'0 0.0
2018-Sep-17 04:58N 49°29' E 000°06'0 0.7
2018-Sep-17 04:30N 49°29' E 000°07'1 3.1
2018-Sep-17 04:03N 49°29' E 000°05'0 8.5
2018-Sep-17 04:00N 49°29' E 000°04'612.4
2018-Sep-17 03:30N 49°31' W 000°05'511.4
2018-Sep-17 03:03N 49°33' W 000°13'111.6
2018-Sep-17 03:00N 49°33' W 000°13'611.3
2018-Sep-17 02:30N 49°35' W 000°21'511.1
2018-Sep-17 02:03N 49°37' W 000°28'011.0
2018-Sep-17 02:00N 49°38' W 000°29'611.1
2018-Sep-17 01:30N 49°40' W 000°37'510.9
2018-Sep-17 01:03N 49°42' W 000°44'110.9
2018-Sep-17 01:00N 49°42' W 000°45'510.9
2018-Sep-17 00:30N 49°45' W 000°52'4 9.9
2018-Sep-17 00:03N 49°49' W 000°51'110.0
2018-Sep-17 00:00N 49°50' W 000°51'510.3
2018-Sep-16 23:30N 49°55' W 000°50'4 9.9
2018-Sep-16 23:03N 49°59' W 000°48'0 8.2
2018-Sep-16 23:00N 49°59' W 000°48'4 8.0
2018-Sep-16 22:30N 50°04' W 000°49'4 9.1
2018-Sep-16 22:03N 50°04' W 000°55'0 9.2
2018-Sep-16 22:00N 50°03' W 000°56'5 9.0
2018-Sep-16 21:31N 50°03' W 001°03'4 8.6
2018-Sep-16 21:03N 50°02' W 001°09'0 8.2
2018-Sep-16 21:00N 50°02' W 001°09'4 7.9
2018-Sep-16 20:31N 50°01' W 001°15'3 7.4
2018-Sep-16 20:03N 50°01' W 001°20'0 7.3
2018-Sep-16 20:00N 50°01' W 001°21'3 6.9
2018-Sep-16 19:30N 49°60' W 001°26'3 7.1
2018-Sep-16 19:03N 49°58' W 001°30'0 7.0
2018-Sep-16 19:00N 49°58' W 001°31'4 7.2
2018-Sep-16 18:30N 49°56' W 001°36'3 7.0
2018-Sep-16 18:03N 49°55' W 001°40'0 6.7
2018-Sep-16 18:01N 49°54' W 001°40'4 7.4
2018-Sep-16 17:30N 49°51' W 001°42'4 7.9
2018-Sep-16 17:03N 49°47' W 001°42'0 8.3
2018-Sep-16 17:00N 49°47' W 001°42'4 9.0
2018-Sep-16 16:30N 49°43' W 001°41'4 9.1
2018-Sep-16 16:03N 49°39' W 001°37'0 5.6
2018-Sep-16 16:01N 49°39' W 001°37'0 0.3
2018-Sep-16 15:29N 49°39' W 001°37'0 0.0
2018-Sep-16 14:59N 49°39' W 001°37'0 0.0
2018-Sep-16 13:59N 49°39' W 001°37'0 0.0
2018-Sep-16 13:29N 49°39' W 001°37'0 0.0
2018-Sep-16 12:59N 49°39' W 001°37'0 0.0
2018-Sep-16 12:29N 49°39' W 001°37'0 0.0
2018-Sep-16 11:59N 49°39' W 001°37'0 0.0
2018-Sep-16 11:29N 49°39' W 001°37'0 0.0
2018-Sep-16 10:59N 49°39' W 001°37'0 0.0
2018-Sep-16 10:29N 49°39' W 001°37'0 0.0
2018-Sep-16 09:59N 49°39' W 001°37'0 0.0
2018-Sep-16 09:29N 49°39' W 001°37'0 0.0
2018-Sep-16 08:59N 49°39' W 001°37'0 0.0
2018-Sep-16 08:29N 49°39' W 001°37'0 0.0
2018-Sep-16 07:59N 49°39' W 001°37'0 0.0
2018-Sep-16 07:29N 49°39' W 001°37'0 0.0
2018-Sep-16 06:59N 49°39' W 001°37'0 0.0
2018-Sep-16 06:29N 49°39' W 001°37'0 0.0
2018-Sep-16 05:59N 49°39' W 001°37'0 0.0
2018-Sep-16 05:29N 49°39' W 001°37'0 0.0
2018-Sep-16 04:59N 49°39' W 001°37'0 0.1
2018-Sep-16 04:30N 49°39' W 001°37'1 1.6
2018-Sep-16 04:03N 49°40' W 001°37'0 5.5
2018-Sep-16 04:00N 49°40' W 001°37'510.2
2018-Sep-16 03:30N 49°43' W 001°43'510.1
2018-Sep-16 03:03N 49°47' W 001°48'111.5
2018-Sep-16 03:00N 49°47' W 001°48'611.6
2018-Sep-16 02:30N 49°51' W 001°55'510.7
2018-Sep-16 02:03N 49°55' W 001°60'111.9
2018-Sep-16 02:00N 49°55' W 002°00'611.7
2018-Sep-16 01:30N 50°01' W 002°02'511.8
2018-Sep-16 01:03N 50°06' W 002°05'111.9
2018-Sep-16 01:00N 50°06' W 002°05'612.2
2018-Sep-16 00:30N 50°12' W 002°09'511.3
2018-Sep-16 00:03N 50°17' W 002°11'1 9.7
2018-Sep-16 00:00N 50°17' W 002°10'4 9.0
2018-Sep-15 23:30N 50°20' W 002°04'4 9.0
2018-Sep-15 23:03N 50°20' W 001°57'0 9.7
2018-Sep-15 23:00N 50°20' W 001°57'5 9.4
2018-Sep-15 22:30N 50°21' W 001°50'4 9.4
2018-Sep-15 22:03N 50°22' W 001°43'0 9.6
2018-Sep-15 22:00N 50°22' W 001°42'510.0
2018-Sep-15 21:30N 50°23' W 001°35'510.3
2018-Sep-15 21:04N 50°24' W 001°28'110.5
2018-Sep-15 21:00N 50°25' W 001°27'510.1
2018-Sep-15 20:30N 50°27' W 001°20'510.5
2018-Sep-15 20:03N 50°29' W 001°13'110.9
2018-Sep-15 20:00N 50°29' W 001°13'611.1
2018-Sep-15 19:30N 50°32' W 001°05'510.4
2018-Sep-15 19:04N 50°35' W 000°60'111.7
2018-Sep-15 19:01N 50°36' W 000°59'612.8
2018-Sep-15 18:30N 50°42' W 000°58'613.1
2018-Sep-15 18:03N 50°45' W 001°06'116.7
2018-Sep-15 18:00N 50°45' W 001°07'815.1
2018-Sep-15 17:30N 50°47' W 001°19'4 9.5
2018-Sep-15 17:03N 50°51' W 001°20'0 9.0
2018-Sep-15 17:00N 50°51' W 001°21'5 9.4
2018-Sep-15 16:30N 50°54' W 001°26'0 0.0
2018-Sep-15 05:23N 50°54' W 001°26'1 3.7
2018-Sep-15 05:04N 50°53' W 001°25'0 6.7
2018-Sep-15 05:00N 50°53' W 001°24'4 8.5
2018-Sep-15 04:30N 50°50' W 001°19'4 8.6
2018-Sep-15 04:03N 50°47' W 001°18'112.0
2018-Sep-15 04:00N 50°47' W 001°17'917.5
2018-Sep-15 03:30N 50°44' W 001°04'511.7
2018-Sep-15 03:03N 50°40' W 000°59'0 7.5
2018-Sep-15 03:01N 50°40' W 000°59'611.9
2018-Sep-15 02:30N 50°34' W 001°01'716.3
2018-Sep-15 02:03N 50°31' W 001°11'116.8
2018-Sep-15 02:00N 50°30' W 001°12'917.4
2018-Sep-15 01:28N 50°27' W 001°26'718.0
2018-Sep-15 01:03N 50°24' W 001°37'117.7
2018-Sep-15 01:00N 50°23' W 001°38'1019.2
2018-Sep-15 00:30N 50°20' W 001°52'920.0
2018-Sep-15 00:03N 50°16' W 002°05'120.7
2018-Sep-15 00:00N 50°16' W 002°07'1618.2
2018-Sep-14 23:07N 50°01' W 002°15'219.4
2018-Sep-14 23:02N 49°59' W 002°16'120.8
2018-Sep-14 23:00N 49°58' W 002°17'1020.8
2018-Sep-14 22:30N 49°55' W 002°32'1021.4
2018-Sep-14 22:03N 49°52' W 002°46'121.3
2018-Sep-14 22:00N 49°52' W 002°48'1220.9
2018-Sep-14 21:26N 49°47' W 003°04'821.0
2018-Sep-14 21:03N 49°42' W 003°14'120.9
2018-Sep-14 21:00N 49°41' W 003°15'6620.9
2018-Sep-14 17:51N 48°59' W 004°33'720.9
2018-Sep-14 17:30N 48°55' W 004°42'920.7
2018-Sep-14 17:03N 48°49' W 004°53'120.6
2018-Sep-14 17:00N 48°49' W 004°54'1020.6
2018-Sep-14 16:30N 48°42' W 005°07'919.8
2018-Sep-14 16:03N 48°36' W 005°17'118.7
2018-Sep-14 16:00N 48°36' W 005°17'  
Track history (hours):
 
Tides and Currents Weather Stations Pressure Air Temp Water Temp Dewpoint Dewpoint Depression Visibility Wind Speed Wind Dir Waves Ship Positions

Ventura

Last reported at 2018-Sep-24 16:00 UTC. Time now 2018-Sep-24 21:18 UTC.
Position N 37°42' E 017°48'.

Length 289 m.

Type: Passenger vessel. MMSI: 310562000.

Wind from 230 at 16 knots

Barometer 1013.7 mb
Air temperature 27.0 ° C
Visibility: greater than 10.8 NM
Dewpoint 21.8 ° C
Water temperature 26.8 ° C

Date/timePositionNaut miles runAvg speedWind from/ knotsBaromVisibWave heightAir tempDewpointWater temp
2018-Sep-24 16:00N 37°42' E 017°48'8215.5 230 / 161013.710.8 27.021.826.8
2018-Sep-24 10:40N 37°46' E 016°04'315.3
2018-Sep-24 10:30N 37°46' E 016°01'715.4
2018-Sep-24 10:02N 37°47' E 015°52'015.5
2018-Sep-24 10:00N 37°47' E 015°51'1412.6
2018-Sep-24 08:55N 37°55' E 015°37'915.1
2018-Sep-24 08:20N 38°03' E 015°34'415.1
2018-Sep-24 08:02N 38°07' E 015°34'114.3
2018-Sep-24 07:58N 38°09' E 015°34'713.5
2018-Sep-24 07:27N 38°15' E 015°37'511.5
2018-Sep-24 07:03N 38°19' E 015°41'012.4
2018-Sep-24 07:00N 38°19' E 015°41'713.3
2018-Sep-24 06:30N 38°21' E 015°33'715.0
2018-Sep-24 06:03N 38°21' E 015°24'115.0
2018-Sep-24 06:00N 38°21' E 015°23'815.2
2018-Sep-24 05:30N 38°20' E 015°13'715.0
2018-Sep-24 05:03N 38°20' E 015°05'115.0
2018-Sep-24 05:00N 38°20' E 015°04'815.2
2018-Sep-24 04:30N 38°19' E 014°54'815.4
2018-Sep-24 03:59N 38°21' E 014°44'915.3
2018-Sep-24 03:25N 38°22' E 014°33'1815.1
2018-Sep-24 02:12N 38°24' E 014°10'315.5
2018-Sep-24 02:02N 38°24' E 014°06'115.7
2018-Sep-24 02:00N 38°24' E 014°06'815.8
2018-Sep-24 01:30N 38°24' E 013°56'715.7
2018-Sep-24 01:03N 38°25' E 013°47'115.7
2018-Sep-24 01:00N 38°25' E 013°46'815.6
2018-Sep-24 00:30N 38°26' E 013°36'715.6
2018-Sep-24 00:03N 38°27' E 013°27'115.8
2018-Sep-24 00:00N 38°27' E 013°26'815.9
2018-Sep-23 23:30N 38°27' E 013°16'715.8
2018-Sep-23 23:03N 38°27' E 013°07'115.9
2018-Sep-23 23:00N 38°27' E 013°06'816.1
2018-Sep-23 22:30N 38°27' E 012°56'715.9
2018-Sep-23 22:03N 38°27' E 012°47'115.9
2018-Sep-23 22:00N 38°27' E 012°45'2016.3
2018-Sep-23 20:48N 38°28' E 012°20'6316.6
2018-Sep-23 17:00N 38°24' E 011°00'3316.5 260 / 121018.910.8 25.018.825.9
2018-Sep-23 15:00N 38°24' E 010°18'16016.0 230 / 121019.410.8 27.520.725.5
2018-Sep-23 05:00N 38°36' E 006°54'9816.0 310 / 171020.710.8
2018-Sep-22 22:51N 38°52' E 004°49'616.3
2018-Sep-22 22:30N 38°52' E 004°42'716.4
2018-Sep-22 22:03N 38°53' E 004°33'116.5
2018-Sep-22 21:58N 38°54' E 004°31'816.5
2018-Sep-22 21:30N 38°55' E 004°21'716.2
2018-Sep-22 21:03N 38°56' E 004°12'116.3
2018-Sep-22 21:00N 38°56' E 004°11'816.0
2018-Sep-22 20:30N 38°57' E 004°01'715.9
2018-Sep-22 20:03N 38°58' E 003°52'116.0
2018-Sep-22 20:00N 38°58' E 003°51'816.0
2018-Sep-22 19:30N 38°59' E 003°41'716.1
2018-Sep-22 19:03N 38°60' E 003°31'116.2
2018-Sep-22 19:00N 38°60' E 003°30'916.3
2018-Sep-22 18:28N 39°01' E 003°19'716.2
2018-Sep-22 18:03N 39°02' E 003°11'116.2
2018-Sep-22 18:00N 39°02' E 003°09'816.3
2018-Sep-22 17:30N 39°03' E 002°59'815.2
2018-Sep-22 17:01N 39°06' E 002°50'015.9
2018-Sep-22 17:00N 39°07' E 002°50'816.3
2018-Sep-22 16:30N 39°14' E 002°45'716.5
2018-Sep-22 16:03N 39°20' E 002°41'116.3
2018-Sep-22 16:00N 39°21' E 002°40'814.9
2018-Sep-22 15:30N 39°28' E 002°39'511.2
2018-Sep-22 15:03N 39°33' E 002°39'0 5.6
2018-Sep-22 15:00N 39°33' E 002°38'0 0.5
2018-Sep-22 14:29N 39°33' E 002°38'0 0.0
2018-Sep-22 13:59N 39°33' E 002°38'0 0.0
2018-Sep-22 13:29N 39°33' E 002°38'0 0.0
2018-Sep-22 13:02N 39°33' E 002°38'0 0.0
2018-Sep-22 12:56N 39°33' E 002°38'0 0.0
2018-Sep-22 12:29N 39°33' E 002°38'0 0.0
2018-Sep-22 12:02N 39°33' E 002°38'0 0.1
2018-Sep-22 11:59N 39°33' E 002°38'0 0.0
2018-Sep-22 11:29N 39°33' E 002°38'0 0.0
2018-Sep-22 11:02N 39°33' E 002°38'0 0.0
2018-Sep-22 10:59N 39°33' E 002°38'0 0.0
2018-Sep-22 10:29N 39°33' E 002°38'0 0.0
2018-Sep-22 10:02N 39°33' E 002°38'0 0.0
2018-Sep-22 09:59N 39°33' E 002°38'0 0.0
2018-Sep-22 09:29N 39°33' E 002°38'0 0.0
2018-Sep-22 09:02N 39°33' E 002°38'0 0.0
2018-Sep-22 08:59N 39°33' E 002°38'0 0.0
2018-Sep-22 08:29N 39°33' E 002°38'0 0.0
2018-Sep-22 08:02N 39°33' E 002°38'0 0.0
2018-Sep-22 07:59N 39°33' E 002°38'0 0.0
2018-Sep-22 07:29N 39°33' E 002°38'0 0.0
2018-Sep-22 07:02N 39°33' E 002°38'0 0.0
2018-Sep-22 06:59N 39°33' E 002°38'0 0.0
2018-Sep-22 06:29N 39°33' E 002°38'0 0.2
2018-Sep-22 06:04N 39°33' E 002°38'0 1.0
2018-Sep-22 06:00N 39°33' E 002°38'3 5.0
2018-Sep-22 05:30N 39°31' E 002°40'612.7
2018-Sep-22 05:03N 39°26' E 002°36'114.4
2018-Sep-22 05:00N 39°26' E 002°35'917.3
2018-Sep-22 04:30N 39°19' E 002°28'817.3
2018-Sep-22 04:03N 39°13' E 002°22'117.2
2018-Sep-22 04:00N 39°12' E 002°21'917.4
2018-Sep-22 03:29N 39°05' E 002°14'1017.7
2018-Sep-22 02:55N 38°57' E 002°06'818.2
2018-Sep-22 02:28N 38°51' E 001°59'819.0
2018-Sep-22 02:02N 38°45' E 001°53'120.6
2018-Sep-22 02:00N 38°44' E 001°52'1020.6
2018-Sep-22 01:30N 38°36' E 001°44'920.2
2018-Sep-22 01:03N 38°30' E 001°35'120.5
2018-Sep-22 01:00N 38°29' E 001°34'1020.3
2018-Sep-22 00:30N 38°24' E 001°24'920.4
2018-Sep-22 00:03N 38°18' E 001°14'120.8
2018-Sep-21 23:59N 38°17' E 001°13'1320.5
2018-Sep-21 23:20N 38°10' E 000°59'620.3
2018-Sep-21 23:02N 38°06' E 000°53'120.3
2018-Sep-21 22:58N 38°05' E 000°52'1020.1
2018-Sep-21 22:27N 37°59' E 000°41'1920.1
2018-Sep-21 21:31N 37°48' E 000°21'020.3
2018-Sep-21 21:30N 37°48' E 000°21'920.3
2018-Sep-21 21:03N 37°43' E 000°12'120.2
2018-Sep-21 21:00N 37°42' E 000°11'1020.3
2018-Sep-21 20:30N 37°36' E 000°00'919.9
2018-Sep-21 20:03N 37°31' W 000°09'119.9
2018-Sep-21 20:00N 37°30' W 000°10'1019.9
2018-Sep-21 19:30N 37°24' W 000°20'920.1
2018-Sep-21 19:03N 37°19' W 000°29'120.1
2018-Sep-21 19:00N 37°18' W 000°30'1020.0
2018-Sep-21 18:30N 37°13' W 000°40'920.0
2018-Sep-21 18:03N 37°07' W 000°50'220.2
2018-Sep-21 17:58N 37°06' W 000°51'1020.2
2018-Sep-21 17:30N 37°01' W 001°01'920.1
2018-Sep-21 17:03N 36°56' W 001°10'120.1
2018-Sep-21 16:59N 36°55' W 001°11'1020.0
2018-Sep-21 16:29N 36°49' W 001°21'920.2
2018-Sep-21 16:03N 36°44' W 001°30'22333.9
2018-Sep-21 16:00N 36°54' W 001°06'24984.8 220 / 61017.610.8 23.518.125.5
2018-Sep-21 15:58N 36°43' W 001°32'18220.0
2018-Sep-21 06:51N 35°59' W 005°12'720.2
2018-Sep-21 06:30N 35°58' W 005°21'1620.6
2018-Sep-21 05:44N 35°54' W 005°40'519.9
2018-Sep-21 05:30N 35°54' W 005°46'819.0
2018-Sep-21 05:03N 35°55' W 005°56'119.1
2018-Sep-21 04:59N 35°55' W 005°58'1020.0
2018-Sep-21 04:30N 35°55' W 006°10'6919.7
2018-Sep-21 01:00N 36°12' W 007°33'1019.8
2018-Sep-21 00:30N 36°14' W 007°44'2019.8
2018-Sep-20 23:29N 36°19' W 008°09'919.8
2018-Sep-20 23:00N 36°22' W 008°20'1019.6
2018-Sep-20 22:30N 36°24' W 008°32'919.6
2018-Sep-20 22:02N 36°26' W 008°43'119.9
2018-Sep-20 22:00N 36°26' W 008°44'1019.8
2018-Sep-20 21:30N 36°28' W 008°56'919.7
2018-Sep-20 21:03N 36°31' W 009°06'419.8
2018-Sep-20 20:52N 36°32' W 009°10'919.3
2018-Sep-20 20:25N 36°37' W 009°20'719.9
2018-Sep-20 20:03N 36°42' W 009°26'120.0
2018-Sep-20 20:00N 36°43' W 009°27'1019.0
2018-Sep-20 19:30N 36°51' W 009°33'920.0
2018-Sep-20 19:03N 36°60' W 009°35'120.1
2018-Sep-20 19:00N 37°01' W 009°35'1020.0
2018-Sep-20 18:30N 37°11' W 009°38'920.3
2018-Sep-20 18:03N 37°19' W 009°40'120.4
2018-Sep-20 18:00N 37°20' W 009°41'1020.4
2018-Sep-20 17:30N 37°30' W 009°44'920.1
2018-Sep-20 17:03N 37°39' W 009°48'120.1
2018-Sep-20 17:00N 37°40' W 009°48'6570.4
2018-Sep-20 17:00N 37°36' W 009°42'1531.7 350 / 201019.110.8 25.115.419.2
2018-Sep-20 16:30N 37°50' W 009°51'920.2
2018-Sep-20 16:03N 37°58' W 009°54'120.4
2018-Sep-20 16:00N 37°59' W 009°54'1020.4
2018-Sep-20 15:30N 38°09' W 009°57'920.2
2018-Sep-20 15:03N 38°18' W 009°59'120.4
2018-Sep-20 15:00N 38°19' W 009°60'1920.3
2018-Sep-20 14:03N 38°38' W 010°04'120.2
2018-Sep-20 14:00N 38°39' W 010°04'1019.8
2018-Sep-20 13:30N 38°49' W 010°06'920.2
2018-Sep-20 13:03N 38°58' W 010°07'119.8
2018-Sep-20 13:00N 38°59' W 010°07'1019.6
2018-Sep-20 12:30N 39°09' W 010°07'920.0
2018-Sep-20 12:03N 39°18' W 010°07'120.0
2018-Sep-20 12:00N 39°19' W 010°07'918.8
2018-Sep-20 11:30N 39°28' W 010°06'818.2
2018-Sep-20 11:03N 39°36' W 010°06'118.3
2018-Sep-20 11:00N 39°37' W 010°06'918.4
2018-Sep-20 10:30N 39°46' W 010°06'818.3
2018-Sep-20 10:03N 39°55' W 010°07'118.2
2018-Sep-20 10:00N 39°56' W 010°07'918.2
2018-Sep-20 09:30N 40°05' W 010°07'817.6
2018-Sep-20 09:03N 40°13' W 010°07'119.5
2018-Sep-20 09:00N 40°14' W 010°07'1019.5
2018-Sep-20 08:30N 40°23' W 010°05'919.8
2018-Sep-20 08:03N 40°32' W 010°04'119.6
2018-Sep-20 08:00N 40°33' W 010°04'1020.3
2018-Sep-20 07:30N 40°44' W 010°05'1120.8
2018-Sep-20 06:58N 40°55' W 010°06'1021.7
2018-Sep-20 06:30N 41°05' W 010°05'1021.3
2018-Sep-20 06:01N 41°15' W 010°05'120.7
2018-Sep-20 05:59N 41°16' W 010°05'25719.8
2018-Sep-19 17:00N 45°18' W 008°06'17 8.7 220 / 231018.9 5.4 20.518.119.8
2018-Sep-19 15:00N 45°30' W 007°48'18523.2 220 / 251018.4 5.4 20.518.119.7
2018-Sep-19 07:00N 48°12' W 005°36'592.2 210 / 331013.810.8 18.516.917.5
2018-Sep-19 06:56N 48°17' W 005°36'818.8
2018-Sep-19 06:30N 48°24' W 005°31'818.9
2018-Sep-19 06:03N 48°32' W 005°24'119.0
2018-Sep-19 06:00N 48°32' W 005°23'918.7
2018-Sep-19 05:30N 48°39' W 005°14'817.7
2018-Sep-19 05:03N 48°44' W 005°04'117.5
2018-Sep-19 05:00N 48°45' W 005°03'918.1
2018-Sep-19 04:30N 48°50' W 004°52'919.4
2018-Sep-19 04:03N 48°56' W 004°41'119.2
2018-Sep-19 04:00N 48°56' W 004°40'6518.2
2018-Sep-19 00:26N 49°39' W 003°25'717.7
2018-Sep-19 00:04N 49°44' W 003°18'117.5
2018-Sep-19 00:00N 49°44' W 003°17'917.3
2018-Sep-18 23:30N 49°51' W 003°08'818.2
2018-Sep-18 23:03N 49°56' W 002°59'118.5
2018-Sep-18 23:00N 49°57' W 002°58'918.5
2018-Sep-18 22:30N 50°00' W 002°44'918.9
2018-Sep-18 22:03N 50°03' W 002°32'119.0
2018-Sep-18 22:00N 50°04' W 002°30'1019.1
2018-Sep-18 21:30N 50°08' W 002°17'919.3
2018-Sep-18 21:03N 50°12' W 002°05'119.4
2018-Sep-18 21:00N 50°12' W 002°03'1019.5
2018-Sep-18 20:30N 50°17' W 001°50'919.3
2018-Sep-18 20:03N 50°21' W 001°38'119.6
2018-Sep-18 20:01N 50°21' W 001°37'1019.6
2018-Sep-18 19:30N 50°25' W 001°22'919.4
2018-Sep-18 19:03N 50°29' W 001°10'118.8
2018-Sep-18 19:00N 50°30' W 001°09'917.5
2018-Sep-18 18:30N 50°36' W 000°59'714.9
2018-Sep-18 18:03N 50°43' W 000°59'0 7.8
2018-Sep-18 18:00N 50°43' W 000°59'714.9
2018-Sep-18 17:30N 50°46' W 001°10'612.2
2018-Sep-18 17:03N 50°48' W 001°18'111.2
2018-Sep-18 17:00N 50°48' W 001°18'611.3
2018-Sep-18 16:31N 50°53' W 001°23'2 5.1
2018-Sep-18 16:03N 50°54' W 001°26'0 0.0
2018-Sep-18 16:00N 50°54' W 001°26'0 0.0
2018-Sep-18 15:25N 50°54' W 001°26'0 0.0
2018-Sep-18 15:01N 50°54' W 001°26'0 0.0
2018-Sep-18 14:55N 50°54' W 001°26'0 0.0
2018-Sep-18 14:01N 50°54' W 001°26'0 0.0
2018-Sep-18 13:55N 50°54' W 001°26'0 0.0
2018-Sep-18 13:25N 50°54' W 001°26'0 0.0
2018-Sep-18 13:01N 50°54' W 001°26'0 0.0
2018-Sep-18 12:55N 50°54' W 001°26'0 0.0
2018-Sep-18 12:25N 50°54' W 001°26'0 0.0
2018-Sep-18 12:01N 50°54' W 001°26'0 0.0
2018-Sep-18 11:55N 50°54' W 001°26'0 0.0
2018-Sep-18 11:25N 50°54' W 001°26'0 0.0
2018-Sep-18 11:01N 50°54' W 001°26'0 0.0
2018-Sep-18 10:55N 50°54' W 001°26'0 0.0
2018-Sep-18 10:25N 50°54' W 001°26'0 0.0
2018-Sep-18 10:01N 50°54' W 001°26'0 0.0
2018-Sep-18 09:55N 50°54' W 001°26'0 0.0
2018-Sep-18 09:25N 50°54' W 001°26'0 0.0
2018-Sep-18 09:01N 50°54' W 001°26'0 0.1
2018-Sep-18 08:55N 50°54' W 001°26'0 0.0
2018-Sep-18 08:25N 50°54' W 001°26'0 0.0
2018-Sep-18 08:01N 50°54' W 001°26'0 0.1
2018-Sep-18 07:55N 50°54' W 001°26'0 0.0
2018-Sep-18 07:25N 50°54' W 001°26'0 0.0
2018-Sep-18 07:01N 50°54' W 001°26'0 0.0
2018-Sep-18 06:49N 50°54' W 001°26'0 0.0
2018-Sep-18 06:25N 50°54' W 001°26'0 0.0
2018-Sep-18 06:01N 50°54' W 001°26'0 0.0
2018-Sep-18 05:55N 50°54' W 001°26'0 0.0
2018-Sep-18 05:25N 50°54' W 001°26'0 0.0
2018-Sep-18 05:01N 50°54' W 001°26'0 0.1
2018-Sep-18 04:55N 50°54' W 001°26'0 0.0
2018-Sep-18 04:25N 50°54' W 001°26'0 0.0
2018-Sep-18 04:01N 50°54' W 001°26'0 0.0
2018-Sep-18 03:55N 50°54' W 001°26'0 0.0
2018-Sep-18 03:25N 50°54' W 001°26'0 0.0
2018-Sep-18 03:01N 50°54' W 001°26'0 0.0
2018-Sep-18 02:55N 50°54' W 001°26'0 0.0
2018-Sep-18 02:25N 50°54' W 001°26'0 0.0
2018-Sep-18 02:01N 50°54' W 001°26'0 0.0
2018-Sep-18 01:55N 50°54' W 001°26'0 0.5
2018-Sep-18 01:30N 50°54' W 001°26'1 2.9
2018-Sep-18 01:03N 50°53' W 001°24'0 6.9
2018-Sep-18 01:00N 50°53' W 001°24'4 8.3
2018-Sep-18 00:30N 50°50' W 001°19'4 8.4
2018-Sep-18 00:03N 50°47' W 001°19'111.1
2018-Sep-18 00:00N 50°46' W 001°18'713.8
2018-Sep-17 23:31N 50°45' W 001°07'614.2
2018-Sep-17 23:03N 50°42' W 000°58'111.7
2018-Sep-17 23:00N 50°42' W 000°58'611.7
2018-Sep-17 22:30N 50°37' W 000°53'817.4
2018-Sep-17 22:03N 50°29' W 000°49'117.4
2018-Sep-17 22:00N 50°29' W 000°49'917.5
2018-Sep-17 21:30N 50°20' W 000°45'817.7
2018-Sep-17 21:03N 50°13' W 000°41'118.3
2018-Sep-17 21:00N 50°12' W 000°40'918.5
2018-Sep-17 20:30N 50°03' W 000°35'818.7
2018-Sep-17 20:03N 49°55' W 000°31'118.7
2018-Sep-17 20:00N 49°54' W 000°31'918.7
2018-Sep-17 19:30N 49°46' W 000°25'818.3
2018-Sep-17 19:03N 49°38' W 000°20'117.6
2018-Sep-17 19:00N 49°37' W 000°20'815.7
2018-Sep-17 18:30N 49°32' W 000°10'714.7
2018-Sep-17 18:03N 49°30' W 000°01'116.8
2018-Sep-17 18:00N 49°30' E 000°01'4 7.3
2018-Sep-17 17:28N 49°29' E 000°06'0 0.0
2018-Sep-17 17:01N 49°29' E 000°06'0 0.0
2018-Sep-17 16:58N 49°29' E 000°06'0 0.0
2018-Sep-17 16:28N 49°29' E 000°06'0 0.0
2018-Sep-17 16:01N 49°29' E 000°06'0 0.0
2018-Sep-17 15:58N 49°29' E 000°06'0 0.0
2018-Sep-17 15:28N 49°29' E 000°06'0 0.0
2018-Sep-17 14:58N 49°29' E 000°06'0 0.0
2018-Sep-17 14:28N 49°29' E 000°06'0 0.0
2018-Sep-17 13:58N 49°29' E 000°06'0 0.0
2018-Sep-17 13:28N 49°29' E 000°06'0 0.0
2018-Sep-17 13:01N 49°29' E 000°06'0 0.0
2018-Sep-17 12:58N 49°29' E 000°06'0 0.0
2018-Sep-17 12:28N 49°29' E 000°06'0 0.0
2018-Sep-17 12:01N 49°29' E 000°06'0 0.0
2018-Sep-17 11:58N 49°29' E 000°06'0 0.0
2018-Sep-17 11:28N 49°29' E 000°06'0 0.0
2018-Sep-17 11:01N 49°29' E 000°06'0 0.0
2018-Sep-17 10:58N 49°29' E 000°06'0 0.0
2018-Sep-17 10:28N 49°29' E 000°06'0 0.0
2018-Sep-17 10:01N 49°29' E 000°06'0 0.0
2018-Sep-17 09:58N 49°29' E 000°06'0 0.0
2018-Sep-17 09:28N 49°29' E 000°06'0 0.0
2018-Sep-17 09:01N 49°29' E 000°06'0 0.0
2018-Sep-17 08:58N 49°29' E 000°06'0 0.0
2018-Sep-17 08:28N 49°29' E 000°06'0 0.0
2018-Sep-17 08:01N 49°29' E 000°06'0 0.0
2018-Sep-17 07:58N 49°29' E 000°06'0 0.0
2018-Sep-17 07:28N 49°29' E 000°06'0 0.0
2018-Sep-17 07:01N 49°29' E 000°06'0 0.0
2018-Sep-17 06:58N 49°29' E 000°06'0 0.0
2018-Sep-17 06:28N 49°29' E 000°06'0 0.0
2018-Sep-17 06:01N 49°29' E 000°06'0 0.0
2018-Sep-17 05:58N 49°29' E 000°06'0 0.0
2018-Sep-17 05:28N 49°29' E 000°06'0 0.0
2018-Sep-17 05:01N 49°29' E 000°06'0 0.0
2018-Sep-17 04:58N 49°29' E 000°06'0 0.7
2018-Sep-17 04:30N 49°29' E 000°07'1 3.1
2018-Sep-17 04:03N 49°29' E 000°05'0 8.5
2018-Sep-17 04:00N 49°29' E 000°04'612.4
2018-Sep-17 03:30N 49°31' W 000°05'511.4
2018-Sep-17 03:03N 49°33' W 000°13'111.6
2018-Sep-17 03:00N 49°33' W 000°13'611.3
2018-Sep-17 02:30N 49°35' W 000°21'511.1
2018-Sep-17 02:03N 49°37' W 000°28'011.0
2018-Sep-17 02:00N 49°38' W 000°29'611.1
2018-Sep-17 01:30N 49°40' W 000°37'510.9
2018-Sep-17 01:03N 49°42' W 000°44'110.9
2018-Sep-17 01:00N 49°42' W 000°45'510.9
2018-Sep-17 00:30N 49°45' W 000°52'4 9.9
2018-Sep-17 00:03N 49°49' W 000°51'110.0
2018-Sep-17 00:00N 49°50' W 000°51'510.3
2018-Sep-16 23:30N 49°55' W 000°50'4 9.9
2018-Sep-16 23:03N 49°59' W 000°48'0 8.2
2018-Sep-16 23:00N 49°59' W 000°48'4 8.0
2018-Sep-16 22:30N 50°04' W 000°49'4 9.1
2018-Sep-16 22:03N 50°04' W 000°55'0 9.2
2018-Sep-16 22:00N 50°03' W 000°56'5 9.0
2018-Sep-16 21:31N 50°03' W 001°03'4 8.6
2018-Sep-16 21:03N 50°02' W 001°09'0 8.2
2018-Sep-16 21:00N 50°02' W 001°09'4 7.9
2018-Sep-16 20:31N 50°01' W 001°15'3 7.4
2018-Sep-16 20:03N 50°01' W 001°20'0 7.3
2018-Sep-16 20:00N 50°01' W 001°21'3 6.9
2018-Sep-16 19:30N 49°60' W 001°26'3 7.1
2018-Sep-16 19:03N 49°58' W 001°30'0 7.0
2018-Sep-16 19:00N 49°58' W 001°31'4 7.2
2018-Sep-16 18:30N 49°56' W 001°36'3 7.0
2018-Sep-16 18:03N 49°55' W 001°40'0 6.7
2018-Sep-16 18:01N 49°54' W 001°40'4 7.4
2018-Sep-16 17:30N 49°51' W 001°42'4 7.9
2018-Sep-16 17:03N 49°47' W 001°42'0 8.3
2018-Sep-16 17:00N 49°47' W 001°42'4 9.0
2018-Sep-16 16:30N 49°43' W 001°41'4 9.1
2018-Sep-16 16:03N 49°39' W 001°37'0 5.6
2018-Sep-16 16:01N 49°39' W 001°37'0 0.3
2018-Sep-16 15:29N 49°39' W 001°37'0 0.0
2018-Sep-16 14:59N 49°39' W 001°37'0 0.0
2018-Sep-16 13:59N 49°39' W 001°37'0 0.0
2018-Sep-16 13:29N 49°39' W 001°37'0 0.0
2018-Sep-16 12:59N 49°39' W 001°37'0 0.0
2018-Sep-16 12:29N 49°39' W 001°37'0 0.0
2018-Sep-16 11:59N 49°39' W 001°37'0 0.0
2018-Sep-16 11:29N 49°39' W 001°37'0 0.0
2018-Sep-16 10:59N 49°39' W 001°37'0 0.0
2018-Sep-16 10:29N 49°39' W 001°37'0 0.0
2018-Sep-16 09:59N 49°39' W 001°37'0 0.0
2018-Sep-16 09:29N 49°39' W 001°37'0 0.0
2018-Sep-16 08:59N 49°39' W 001°37'0 0.0
2018-Sep-16 08:29N 49°39' W 001°37'0 0.0
2018-Sep-16 07:59N 49°39' W 001°37'0 0.0
2018-Sep-16 07:29N 49°39' W 001°37'0 0.0
2018-Sep-16 06:59N 49°39' W 001°37'0 0.0
2018-Sep-16 06:29N 49°39' W 001°37'0 0.0
2018-Sep-16 05:59N 49°39' W 001°37'0 0.0
2018-Sep-16 05:29N 49°39' W 001°37'0 0.0
2018-Sep-16 04:59N 49°39' W 001°37'0 0.1
2018-Sep-16 04:30N 49°39' W 001°37'1 1.6
2018-Sep-16 04:03N 49°40' W 001°37'0 5.5
2018-Sep-16 04:00N 49°40' W 001°37'510.2
2018-Sep-16 03:30N 49°43' W 001°43'510.1
2018-Sep-16 03:03N 49°47' W 001°48'111.5
2018-Sep-16 03:00N 49°47' W 001°48'611.6
2018-Sep-16 02:30N 49°51' W 001°55'510.7
2018-Sep-16 02:03N 49°55' W 001°60'111.9
2018-Sep-16 02:00N 49°55' W 002°00'611.7
2018-Sep-16 01:30N 50°01' W 002°02'511.8
2018-Sep-16 01:03N 50°06' W 002°05'111.9
2018-Sep-16 01:00N 50°06' W 002°05'612.2
2018-Sep-16 00:30N 50°12' W 002°09'511.3
2018-Sep-16 00:03N 50°17' W 002°11'1 9.7
2018-Sep-16 00:00N 50°17' W 002°10'4 9.0
2018-Sep-15 23:30N 50°20' W 002°04'4 9.0
2018-Sep-15 23:03N 50°20' W 001°57'0 9.7
2018-Sep-15 23:00N 50°20' W 001°57'5 9.4
2018-Sep-15 22:30N 50°21' W 001°50'4 9.4
2018-Sep-15 22:03N 50°22' W 001°43'0 9.6
2018-Sep-15 22:00N 50°22' W 001°42'510.0
2018-Sep-15 21:30N 50°23' W 001°35'510.3
2018-Sep-15 21:04N 50°24' W 001°28'110.5
2018-Sep-15 21:00N 50°25' W 001°27'510.1
2018-Sep-15 20:30N 50°27' W 001°20'510.5
2018-Sep-15 20:03N 50°29' W 001°13'110.9
2018-Sep-15 20:00N 50°29' W 001°13'611.1
2018-Sep-15 19:30N 50°32' W 001°05'510.4
2018-Sep-15 19:04N 50°35' W 000°60'111.7
2018-Sep-15 19:01N 50°36' W 000°59'612.8
2018-Sep-15 18:30N 50°42' W 000°58'613.1
2018-Sep-15 18:03N 50°45' W 001°06'116.7
2018-Sep-15 18:00N 50°45' W 001°07'815.1
2018-Sep-15 17:30N 50°47' W 001°19'4 9.5
2018-Sep-15 17:03N 50°51' W 001°20'0 9.0
2018-Sep-15 17:00N 50°51' W 001°21'5 9.4
2018-Sep-15 16:30N 50°54' W 001°26'0 0.0
2018-Sep-15 05:23N 50°54' W 001°26'1 3.7
2018-Sep-15 05:04N 50°53' W 001°25'0 6.7
2018-Sep-15 05:00N 50°53' W 001°24'4 8.5
2018-Sep-15 04:30N 50°50' W 001°19'4 8.6
2018-Sep-15 04:03N 50°47' W 001°18'112.0
2018-Sep-15 04:00N 50°47' W 001°17'917.5
2018-Sep-15 03:30N 50°44' W 001°04'511.7
2018-Sep-15 03:03N 50°40' W 000°59'0 7.5
2018-Sep-15 03:01N 50°40' W 000°59'611.9
2018-Sep-15 02:30N 50°34' W 001°01'716.3
2018-Sep-15 02:03N 50°31' W 001°11'116.8
2018-Sep-15 02:00N 50°30' W 001°12'917.4
2018-Sep-15 01:28N 50°27' W 001°26'718.0
2018-Sep-15 01:03N 50°24' W 001°37'117.7
2018-Sep-15 01:00N 50°23' W 001°38'1019.2
2018-Sep-15 00:30N 50°20' W 001°52'920.0
2018-Sep-15 00:03N 50°16' W 002°05'120.7
2018-Sep-15 00:00N 50°16' W 002°07'1618.2
2018-Sep-14 23:07N 50°01' W 002°15'219.4
2018-Sep-14 23:02N 49°59' W 002°16'120.8
2018-Sep-14 23:00N 49°58' W 002°17'1020.8
2018-Sep-14 22:30N 49°55' W 002°32'1021.4
2018-Sep-14 22:03N 49°52' W 002°46'121.3
2018-Sep-14 22:00N 49°52' W 002°48'1220.9
2018-Sep-14 21:26N 49°47' W 003°04'821.0
2018-Sep-14 21:03N 49°42' W 003°14'120.9
2018-Sep-14 21:00N 49°41' W 003°15'6620.9
2018-Sep-14 17:51N 48°59' W 004°33'720.9
2018-Sep-14 17:30N 48°55' W 004°42'920.7
2018-Sep-14 17:03N 48°49' W 004°53'120.6
2018-Sep-14 17:00N 48°49' W 004°54'1020.6
2018-Sep-14 16:30N 48°42' W 005°07'919.8
2018-Sep-14 16:03N 48°36' W 005°17'118.7
2018-Sep-14 16:00N 48°36' W 005°17'  

Dump ship's entire track history